createdAt,value
2022-09-12T00:01:19.422Z,101162.13
2022-09-12T00:03:47.868Z,101157.81
2022-09-12T00:06:22.988Z,101157.81
2022-09-12T00:08:53.639Z,101158.91
2022-09-12T00:11:20.884Z,101167.31
2022-09-12T00:13:48.620Z,101168.88
2022-09-12T00:16:22.790Z,101165.28
2022-09-12T00:18:50.508Z,101166.72
2022-09-12T00:21:18.805Z,101164.00
2022-09-12T00:23:47.251Z,101164.66
2022-09-12T00:26:15.481Z,101165.69
2022-09-12T00:28:42.973Z,101171.13
2022-09-12T00:31:16.988Z,101165.09
2022-09-12T00:33:45.115Z,101166.97
2022-09-12T00:36:19.029Z,101155.75
2022-09-12T00:38:47.100Z,101163.34
2022-09-12T00:41:29.446Z,101162.00
2022-09-12T00:44:02.967Z,101170.44
2022-09-12T00:46:36.281Z,101165.28
2022-09-12T00:49:13.039Z,101165.28
2022-09-12T00:51:47.368Z,101158.97
2022-09-12T00:54:19.227Z,101160.22
2022-09-12T00:56:51.061Z,101153.91
2022-09-12T00:59:25.197Z,101155.25
2022-09-12T01:01:52.917Z,101156.28
2022-09-12T01:04:23.019Z,101154.59
2022-09-12T01:06:52.046Z,101152.53
2022-09-12T01:09:22.362Z,101156.56
2022-09-12T01:11:51.751Z,101152.75
2022-09-12T01:14:20.391Z,101151.72
2022-09-12T01:16:49.897Z,101142.56
2022-09-12T01:19:46.173Z,101153.06
2022-09-12T01:22:50.351Z,101148.31
2022-09-12T01:25:37.980Z,101149.03
2022-09-12T01:28:18.101Z,101147.84
2022-09-12T01:30:52.171Z,101147.59
2022-09-12T01:33:33.303Z,101150.06
2022-09-12T01:36:25.830Z,101145.22
2022-09-12T01:39:03.752Z,101148.81
2022-09-12T01:42:00.536Z,101147.56
2022-09-12T01:44:45.804Z,101139.69
2022-09-12T01:47:41.266Z,101142.31
2022-09-12T01:50:32.183Z,101141.94
2022-09-12T01:53:23.983Z,101146.44
2022-09-12T01:55:57.087Z,101143.19
2022-09-12T01:58:34.650Z,101142.53
2022-09-12T02:01:11.071Z,101145.53
2022-09-12T02:03:56.248Z,101147.03
2022-09-12T02:06:31.300Z,101140.66
2022-09-12T02:09:06.149Z,101139.81
2022-09-12T02:11:40.149Z,101133.16
2022-09-12T02:14:13.743Z,101140.22
2022-09-12T02:16:46.214Z,101140.56
2022-09-12T02:19:18.803Z,101139.72
2022-09-12T02:22:05.832Z,101136.94
2022-09-12T02:24:47.887Z,101138.78
2022-09-12T02:27:21.512Z,101132.28
2022-09-12T02:29:50.210Z,101130.41
2022-09-12T02:32:27.162Z,101121.44
2022-09-12T02:35:01.395Z,101131.66
2022-09-12T02:38:16.245Z,101128.91
2022-09-12T02:40:43.548Z,101128.16
2022-09-12T02:43:10.977Z,101123.81
2022-09-12T02:45:38.993Z,101134.28
2022-09-12T02:48:13.684Z,101130.72
2022-09-12T02:50:42.377Z,101130.16
2022-09-12T02:53:11.299Z,101125.19
2022-09-12T02:55:41.475Z,101129.59
2022-09-12T02:58:15.031Z,101130.78
2022-09-12T03:00:46.645Z,101137.38
2022-09-12T03:03:16.846Z,101133.47
2022-09-12T03:05:59.737Z,101133.59
2022-09-12T03:08:40.583Z,101129.44
2022-09-12T03:11:20.194Z,101131.03
2022-09-12T03:14:36.253Z,101129.25
2022-09-12T03:17:12.676Z,101144.31
2022-09-12T03:19:54.859Z,101140.13
2022-09-12T03:22:38.918Z,101140.75
2022-09-12T03:25:17.371Z,101143.16
2022-09-12T03:27:55.835Z,101146.38
2022-09-12T03:30:23.411Z,101143.16
2022-09-12T03:32:53.344Z,101144.81
2022-09-12T03:35:24.075Z,101149.88
2022-09-12T03:37:52.366Z,101155.00
2022-09-12T03:40:20.029Z,101158.38
2022-09-12T03:42:48.065Z,101157.28
2022-09-12T03:45:16.556Z,101156.78
2022-09-12T03:47:43.789Z,101159.22
2022-09-12T03:50:11.320Z,101156.28
2022-09-12T03:52:38.871Z,101153.69
2022-09-12T03:55:06.811Z,101147.69
2022-09-12T03:57:34.160Z,101153.81
2022-09-12T04:00:02.363Z,101147.94
2022-09-12T04:02:40.004Z,101161.09
2022-09-12T04:05:07.520Z,101150.03
2022-09-12T04:07:35.344Z,101156.69
2022-09-12T04:10:04.092Z,101155.47
2022-09-12T04:12:32.169Z,101159.69
2022-09-12T04:14:59.455Z,101160.25
2022-09-12T04:17:26.708Z,101162.47
2022-09-12T04:19:53.972Z,101164.47
2022-09-12T04:22:21.263Z,101161.03
2022-09-12T04:24:48.887Z,101168.56
2022-09-12T04:27:16.265Z,101165.47
2022-09-12T04:29:44.839Z,101162.19
2022-09-12T04:32:12.949Z,101170.50
2022-09-12T04:34:40.181Z,101168.69
2022-09-12T04:37:07.485Z,101173.91
2022-09-12T04:39:34.698Z,101169.63
2022-09-12T04:42:02.092Z,101179.00
2022-09-12T04:44:29.568Z,101179.47
2022-09-12T04:46:57.314Z,101178.66
2022-09-12T04:49:24.729Z,101182.28
2022-09-12T04:51:55.035Z,101180.19
2022-09-12T04:54:22.801Z,101180.81
2022-09-12T04:56:51.644Z,101182.84
2022-09-12T04:59:20.859Z,101184.75
2022-09-12T05:01:48.670Z,101186.38
2022-09-12T05:04:16.255Z,101178.78
2022-09-12T05:06:44.076Z,101189.25
2022-09-12T05:09:14.099Z,101197.84
2022-09-12T05:14:32.763Z,101194.47
2022-09-12T05:17:01.841Z,101198.72
2022-09-12T05:19:30.645Z,101194.03
2022-09-12T05:21:58.963Z,101198.47
2022-09-12T05:24:26.474Z,101198.56
2022-09-12T05:26:53.819Z,101206.00
2022-09-12T05:29:21.456Z,101205.53
2022-09-12T05:31:50.899Z,101202.22
2022-09-12T05:34:19.204Z,101214.78
2022-09-12T05:36:46.657Z,101207.31
2022-09-12T05:39:14.909Z,101209.88
2022-09-12T05:41:42.342Z,101207.25
2022-09-12T05:44:12.417Z,101203.75
2022-09-12T05:46:42.983Z,101211.78
2022-09-12T05:49:12.632Z,101218.84
2022-09-12T05:51:43.228Z,101211.19
2022-09-12T05:54:12.808Z,101221.34
2022-09-12T05:56:42.106Z,101219.59
2022-09-12T05:59:21.816Z,101230.69
2022-09-12T06:01:50.119Z,101232.53
2022-09-12T06:04:17.856Z,101217.97
2022-09-12T06:06:46.479Z,101217.66
2022-09-12T06:09:15.812Z,101217.00
2022-09-12T06:11:45.177Z,101215.75
2022-09-12T06:14:14.933Z,101217.84
2022-09-12T06:16:42.664Z,101222.03
2022-09-12T06:19:21.726Z,101226.53
2022-09-12T06:21:49.739Z,101224.03
2022-09-12T06:24:18.656Z,101224.78
2022-09-12T06:26:47.339Z,101227.75
2022-09-12T06:29:15.225Z,101229.84
2022-09-12T06:31:43.762Z,101224.00
2022-09-12T06:34:14.047Z,101220.03
2022-09-12T06:36:46.905Z,101220.31
2022-09-12T06:39:24.996Z,101219.97
2022-09-12T06:41:52.894Z,101220.13
2022-09-12T06:44:33.839Z,101220.16
2022-09-12T06:47:01.099Z,101224.56
2022-09-12T06:49:29.039Z,101224.59
2022-09-12T06:51:56.329Z,101218.09
2022-09-12T06:54:26.332Z,101219.81
2022-09-12T06:56:54.001Z,101220.88
2022-09-12T06:59:23.190Z,101216.81
2022-09-12T07:01:51.102Z,101210.50
2022-09-12T07:04:18.330Z,101211.91
2022-09-12T07:06:45.596Z,101215.91
2022-09-12T07:09:16.505Z,101213.47
2022-09-12T07:11:46.873Z,101218.56
2022-09-12T07:14:15.362Z,101213.09
2022-09-12T07:16:43.553Z,101214.81
2022-09-12T07:19:11.398Z,101217.47
2022-09-12T07:21:42.171Z,101217.22
2022-09-12T07:24:10.644Z,101214.81
2022-09-12T07:26:40.496Z,101217.94
2022-09-12T07:29:35.344Z,101209.94
2022-09-12T07:32:02.306Z,101220.31
2022-09-12T07:34:29.841Z,101218.34
2022-09-12T07:36:57.086Z,101216.16
2022-09-12T07:39:25.171Z,101221.06
2022-09-12T07:41:52.868Z,101223.31
2022-09-12T07:44:21.928Z,101229.50
2022-09-12T07:46:50.713Z,101225.16
2022-09-12T07:49:17.939Z,101219.97
2022-09-12T07:51:45.837Z,101219.16
2022-09-12T07:54:13.804Z,101223.88
2022-09-12T07:56:41.759Z,101219.53
2022-09-12T07:59:08.989Z,101221.00
2022-09-12T08:01:36.614Z,101228.78
2022-09-12T08:04:05.248Z,101225.00
2022-09-12T08:06:35.972Z,101217.84
2022-09-12T08:09:05.175Z,101226.41
2022-09-12T08:11:33.074Z,101222.91
2022-09-12T08:14:02.844Z,101226.75
2022-09-12T08:16:31.470Z,101225.44
2022-09-12T08:19:01.730Z,101216.31
2022-09-12T08:21:31.315Z,101216.31
2022-09-12T08:24:04.244Z,101226.34
2022-09-12T08:26:33.200Z,101219.34
2022-09-12T08:29:01.445Z,101220.50
2022-09-12T08:31:29.147Z,101224.97
2022-09-12T08:33:56.996Z,101230.22
2022-09-12T08:36:27.335Z,101225.78
2022-09-12T08:38:59.629Z,101228.00
2022-09-12T08:41:49.698Z,101224.13
2022-09-12T08:44:41.528Z,101227.19
2022-09-12T08:47:23.990Z,101226.91
2022-09-12T08:50:04.425Z,101225.75
2022-09-12T08:52:32.645Z,101225.75
2022-09-12T08:55:01.961Z,101226.84
2022-09-12T08:57:29.684Z,101223.00
2022-09-12T08:59:57.609Z,101224.06
2022-09-12T09:03:01.783Z,101231.00
2022-09-12T09:05:51.721Z,101221.28
2022-09-12T09:08:58.692Z,101220.31
2022-09-12T09:11:36.879Z,101222.56
2022-09-12T09:14:33.250Z,101225.31
2022-09-12T09:17:01.983Z,101215.84
2022-09-12T09:19:39.507Z,101225.00
2022-09-12T09:22:27.378Z,101219.94
2022-09-12T09:25:10.350Z,101215.03
2022-09-12T09:27:47.481Z,101214.38
2022-09-12T09:30:19.057Z,101215.09
2022-09-12T09:32:49.805Z,101213.78
2022-09-12T09:35:33.181Z,101217.72
2022-09-12T09:38:24.257Z,101211.91
2022-09-12T09:41:15.266Z,101207.69
2022-09-12T09:43:43.581Z,101197.28
2022-09-12T09:46:14.567Z,101199.34
2022-09-12T09:48:54.727Z,101197.47
2022-09-12T09:51:28.565Z,101195.41
2022-09-12T09:54:21.667Z,101192.50
2022-09-12T09:56:51.868Z,101187.47
2022-09-12T09:59:31.344Z,101192.75
2022-09-12T10:02:04.247Z,101193.25
2022-09-12T10:04:41.090Z,101184.00
2022-09-12T10:07:20.120Z,101192.44
2022-09-12T10:10:16.679Z,101177.41
2022-09-12T10:12:46.412Z,101182.41
2022-09-12T10:15:26.636Z,101173.41
2022-09-12T10:17:56.057Z,101172.91
2022-09-12T10:20:38.447Z,101177.28
2022-09-12T10:23:41.105Z,101182.22
2022-09-12T10:26:14.627Z,101178.69
2022-09-12T10:29:13.718Z,101174.72
2022-09-12T10:31:46.673Z,101163.47
2022-09-12T10:34:42.176Z,101161.63
2022-09-12T10:37:30.899Z,101154.63
2022-09-12T10:40:00.141Z,101156.59
2022-09-12T10:42:48.270Z,101149.03
2022-09-12T10:45:35.573Z,101149.06
2022-09-12T10:48:28.049Z,101144.00
2022-09-12T10:50:56.943Z,101145.69
2022-09-12T10:53:34.488Z,101146.78
2022-09-12T10:56:08.051Z,101143.72
2022-09-12T10:58:45.202Z,101148.38
2022-09-12T11:01:32.920Z,101147.81
2022-09-12T11:04:21.816Z,101135.31
2022-09-12T11:07:16.724Z,101147.34
2022-09-12T11:10:13.404Z,101130.78
2022-09-12T11:12:57.141Z,101129.47
2022-09-12T11:16:02.220Z,101128.13
2022-09-12T11:19:04.063Z,101134.53
2022-09-12T11:21:50.896Z,101127.47
2022-09-12T11:24:37.177Z,101131.66
2022-09-12T11:27:13.094Z,101119.81
2022-09-12T11:30:10.401Z,101123.34
2022-09-12T11:32:56.300Z,101120.91
2022-09-12T11:35:31.048Z,101114.00
2022-09-12T11:38:08.312Z,101124.28
2022-09-12T11:40:43.699Z,101123.03
2022-09-12T11:43:44.506Z,101114.81
2022-09-12T11:46:39.051Z,101115.06
2022-09-12T11:49:15.736Z,101113.66
2022-09-12T11:52:07.382Z,101110.63
2022-09-12T11:54:59.481Z,101106.13
2022-09-12T11:57:33.596Z,101102.41
2022-09-12T12:00:15.981Z,101095.13
2022-09-12T12:03:08.266Z,101100.00
2022-09-12T12:06:16.148Z,101087.50
2022-09-12T12:08:46.080Z,101084.38
2022-09-12T12:11:16.595Z,101086.91
2022-09-12T12:13:56.454Z,101084.84
2022-09-12T12:16:33.806Z,101080.56
2022-09-12T12:19:06.503Z,101085.97
2022-09-12T12:21:45.468Z,101081.44
2022-09-12T12:24:25.282Z,101083.06
2022-09-12T12:26:53.030Z,101077.38
2022-09-12T12:29:20.411Z,101078.16
2022-09-12T12:32:04.435Z,101068.94
2022-09-12T12:34:36.151Z,101073.25
2022-09-12T12:37:19.588Z,101067.06
2022-09-12T12:39:52.409Z,101070.19
2022-09-12T12:42:35.304Z,101066.16
2022-09-12T12:45:04.870Z,101071.84
2022-09-12T12:47:40.302Z,101066.03
2022-09-12T12:50:11.099Z,101067.31
2022-09-12T12:52:50.707Z,101063.44
2022-09-12T12:55:26.891Z,101065.81
2022-09-12T12:58:00.737Z,101057.28
2022-09-12T13:00:39.949Z,101054.91
2022-09-12T13:03:07.327Z,101049.00
2022-09-12T13:05:47.309Z,101042.31
2022-09-12T13:08:18.231Z,101046.44
2022-09-12T13:10:59.890Z,101047.59
2022-09-12T13:13:48.614Z,101037.16
2022-09-12T13:16:53.145Z,101033.53
2022-09-12T13:19:32.712Z,101019.25
2022-09-12T13:22:05.224Z,101015.25
2022-09-12T13:24:34.668Z,101011.47
2022-09-12T13:27:03.091Z,101016.69
2022-09-12T13:29:31.361Z,101010.38
2022-09-12T13:32:01.922Z,101010.34
2022-09-12T13:34:43.280Z,101003.41
2022-09-12T13:37:49.688Z,101008.00
2022-09-12T13:41:03.024Z,100992.16
2022-09-12T13:43:41.738Z,100995.41
2022-09-12T13:46:13.435Z,100989.19
2022-09-12T13:48:41.473Z,100989.00
2022-09-12T13:51:24.277Z,100983.44
2022-09-12T13:53:56.178Z,100975.25
2022-09-12T13:56:24.207Z,100973.94
2022-09-12T13:59:00.831Z,100963.44
2022-09-12T14:01:42.182Z,100965.59
2022-09-12T14:04:41.027Z,100959.81
2022-09-12T14:07:15.874Z,100952.75
2022-09-12T14:09:47.036Z,100909.84
2022-09-12T14:12:25.183Z,100890.03
2022-09-12T14:14:53.432Z,100894.41
2022-09-12T14:17:33.197Z,100894.06
2022-09-12T14:20:03.409Z,100891.19
2022-09-12T14:22:32.401Z,100895.22
2022-09-12T14:25:01.069Z,100894.38
2022-09-12T14:27:43.100Z,100904.88
2022-09-12T14:30:30.565Z,100903.03
2022-09-12T14:33:09.822Z,100900.13
2022-09-12T14:35:51.648Z,100912.47
2022-09-12T14:38:24.971Z,100913.91
2022-09-12T14:41:00.918Z,100922.94
2022-09-12T14:43:32.577Z,100928.06
2022-09-12T14:46:07.177Z,100923.53
2022-09-12T14:48:46.835Z,100919.22
2022-09-12T14:51:25.300Z,100926.66
2022-09-12T14:53:53.692Z,100925.50
2022-09-12T14:56:37.189Z,100922.53
2022-09-12T14:59:28.319Z,100916.56
2022-09-12T15:02:14.469Z,100913.38
2022-09-12T15:04:45.282Z,100907.59
2022-09-12T15:07:34.813Z,100908.53
2022-09-12T15:10:06.391Z,100903.56
2022-09-12T15:12:33.756Z,100903.44
2022-09-12T15:15:13.430Z,100914.13
2022-09-12T15:17:41.123Z,100903.31
2022-09-12T15:20:09.149Z,100898.88
2022-09-12T15:22:38.463Z,100901.66
2022-09-12T15:25:06.965Z,100897.41
2022-09-12T15:27:34.656Z,100889.34
2022-09-12T15:30:02.756Z,100894.03
2022-09-12T15:32:30.834Z,100896.13
2022-09-12T15:34:58.087Z,100887.44
2022-09-12T15:37:25.439Z,100888.91
2022-09-12T15:39:53.147Z,100883.75
2022-09-12T15:42:28.381Z,100880.69
2022-09-12T15:44:58.445Z,100885.41
2022-09-12T15:47:29.305Z,100885.84
2022-09-12T15:49:57.092Z,100872.78
2022-09-12T15:52:24.836Z,100880.56
2022-09-12T15:54:52.374Z,100882.81
2022-09-12T15:57:20.022Z,100874.66
2022-09-12T15:59:47.446Z,100871.53
2022-09-12T16:02:15.177Z,100871.19
2022-09-12T16:04:42.809Z,100871.78
2022-09-12T16:07:10.059Z,100872.34
2022-09-12T16:09:37.591Z,100860.47
2022-09-12T16:12:04.940Z,100856.28
2022-09-12T16:14:32.528Z,100862.78
2022-09-12T16:16:59.965Z,100867.19
2022-09-12T16:19:27.406Z,100859.19
2022-09-12T16:21:55.075Z,100869.06
2022-09-12T16:24:22.491Z,100863.56
2022-09-12T16:26:50.189Z,100864.63
2022-09-12T16:29:17.920Z,100861.81
2022-09-12T16:31:45.361Z,100861.75
2022-09-12T16:34:13.723Z,100852.06
2022-09-12T16:36:41.396Z,100856.56
2022-09-12T16:39:08.977Z,100852.44
2022-09-12T16:41:36.272Z,100848.16
2022-09-12T16:44:03.964Z,100843.88
2022-09-12T16:46:31.791Z,100849.59
2022-09-12T16:48:59.395Z,100854.03
2022-09-12T16:51:32.281Z,100850.63
2022-09-12T16:54:00.909Z,100847.91
2022-09-12T16:56:28.517Z,100842.97
2022-09-12T16:58:55.985Z,100842.88
2022-09-12T17:01:25.355Z,100849.19
2022-09-12T17:03:55.154Z,100847.56
2022-09-12T17:06:23.902Z,100838.56
2022-09-12T17:08:53.526Z,100850.72
2022-09-12T17:11:23.489Z,100847.34
2022-09-12T17:14:04.553Z,100851.56
2022-09-12T17:16:39.559Z,100852.38
2022-09-12T17:19:08.062Z,100840.75
2022-09-12T17:21:36.381Z,100854.22
2022-09-12T17:24:04.066Z,100856.56
2022-09-12T17:26:31.680Z,100853.59
2022-09-12T17:28:58.980Z,100864.69
2022-09-12T17:31:26.689Z,100858.50
2022-09-12T17:34:01.300Z,100868.16
2022-09-12T17:36:31.903Z,100862.28
2022-09-12T17:38:59.608Z,100868.59
2022-09-12T17:41:29.383Z,100871.84
2022-09-12T17:43:58.355Z,100878.47
2022-09-12T17:46:37.580Z,100879.41
2022-09-12T17:49:11.987Z,100874.47
2022-09-12T17:51:40.381Z,100875.28
2022-09-12T17:54:16.228Z,100871.78
2022-09-12T17:56:46.481Z,100882.41
2022-09-12T17:59:17.404Z,100877.94
2022-09-12T18:02:03.646Z,100884.03
2022-09-12T18:04:31.368Z,100892.97
2022-09-12T18:07:00.592Z,100884.81
2022-09-12T18:09:28.436Z,100889.50
2022-09-12T18:11:56.481Z,100897.03
2022-09-12T18:14:24.949Z,100903.09
2022-09-12T18:16:52.444Z,100907.50
2022-09-12T18:19:19.811Z,100912.41
2022-09-12T18:21:47.611Z,100907.81
2022-09-12T18:24:15.814Z,100911.59
2022-09-12T18:26:45.642Z,100908.13
2022-09-12T18:29:16.963Z,100916.47
2022-09-12T18:31:45.013Z,100922.66
2022-09-12T18:34:13.798Z,100917.44
2022-09-12T18:36:46.303Z,100916.72
2022-09-12T18:39:15.448Z,100920.84
2022-09-12T18:41:43.333Z,100921.69
2022-09-12T18:44:12.203Z,100929.41
2022-09-12T18:46:39.973Z,100930.50
2022-09-12T18:49:09.291Z,100934.06
2022-09-12T18:51:37.328Z,100938.06
2022-09-12T18:54:07.292Z,100938.41
2022-09-12T18:56:38.200Z,100938.06
2022-09-12T18:59:07.793Z,100952.59
2022-09-12T19:01:37.620Z,100953.78
2022-09-12T19:04:07.576Z,100951.59
2022-09-12T19:06:38.293Z,100957.47
2022-09-12T19:09:08.354Z,100966.03
2022-09-12T19:11:42.448Z,100962.50
2022-09-12T19:14:10.736Z,100960.88
2022-09-12T19:16:38.106Z,100961.59
2022-09-12T19:19:06.163Z,100966.16
2022-09-12T19:21:34.581Z,100970.31
2022-09-12T19:24:05.564Z,100974.59
2022-09-12T19:26:34.208Z,100965.84
2022-09-12T19:29:03.027Z,100977.91
2022-09-12T19:31:31.440Z,100972.00
2022-09-12T19:34:01.558Z,100973.59
2022-09-12T19:36:46.661Z,100976.72
2022-09-12T19:39:16.911Z,100979.78
2022-09-12T19:41:44.947Z,100974.19
2022-09-12T19:44:12.666Z,100984.31
2022-09-12T19:46:40.681Z,100981.41
2022-09-12T19:49:10.153Z,100984.13
2022-09-12T19:51:37.692Z,100984.53
2022-09-12T19:54:06.063Z,100983.38
2022-09-12T19:56:33.276Z,100990.91
2022-09-12T19:59:01.228Z,100982.03
2022-09-12T20:01:29.019Z,100986.78
2022-09-12T20:03:58.655Z,100989.00
2022-09-12T20:06:27.235Z,100987.31
2022-09-12T20:08:55.770Z,100996.06
2022-09-12T20:11:24.132Z,100994.16
2022-09-12T20:13:52.996Z,100988.94
2022-09-12T20:16:26.559Z,100995.94
2022-09-12T20:18:56.944Z,101004.72
2022-09-12T20:21:31.051Z,101012.69
2022-09-12T20:24:01.184Z,100995.50
2022-09-12T20:26:28.543Z,100999.97
2022-09-12T20:28:56.054Z,101006.19
2022-09-12T20:31:23.563Z,101000.59
2022-09-12T20:33:52.093Z,101002.28
2022-09-12T20:36:21.444Z,101000.06
2022-09-12T20:38:51.941Z,101008.41
2022-09-12T20:41:20.928Z,101006.22
2022-09-12T20:43:52.505Z,101007.91
2022-09-12T20:46:22.261Z,101002.63
2022-09-12T20:48:51.280Z,101007.06
2022-09-12T20:51:19.808Z,101006.56
2022-09-12T20:53:48.160Z,101013.75
2022-09-12T20:56:15.894Z,101009.59
2022-09-12T20:58:44.617Z,101010.38
2022-09-12T21:01:15.696Z,101020.06
2022-09-12T21:03:44.780Z,101011.81
2022-09-12T21:06:13.477Z,101018.72
2022-09-12T21:08:40.894Z,101002.94
2022-09-12T21:11:08.919Z,101017.38
2022-09-12T21:13:36.714Z,101011.81
2022-09-12T21:16:10.725Z,101024.34
2022-09-12T21:18:38.507Z,101026.81
2022-09-12T21:21:05.969Z,101021.28
2022-09-12T21:23:34.435Z,101019.63
2022-09-12T21:26:02.661Z,101026.00
2022-09-12T21:28:31.634Z,101027.31
2022-09-12T21:31:00.267Z,101020.94
2022-09-12T21:33:28.485Z,101019.78
2022-09-12T21:35:55.971Z,101016.78
2022-09-12T21:38:23.280Z,101012.28
2022-09-12T21:40:50.897Z,101013.41
2022-09-12T21:43:18.977Z,101013.34
2022-09-12T21:45:46.603Z,101014.19
2022-09-12T21:48:13.883Z,101012.00
2022-09-12T21:50:41.383Z,101009.75
2022-09-12T21:53:08.964Z,101017.81
2022-09-12T21:55:36.384Z,101022.16
2022-09-12T21:58:03.961Z,101026.59
2022-09-12T22:00:31.734Z,101023.84
2022-09-12T22:02:59.083Z,101022.94
2022-09-12T22:05:29.948Z,101025.25
2022-09-12T22:07:58.843Z,101025.31
2022-09-12T22:10:27.396Z,101016.34
2022-09-12T22:12:55.657Z,101018.16
2022-09-12T22:15:40.114Z,101020.97
2022-09-12T22:18:08.668Z,101023.22
2022-09-12T22:20:36.550Z,101016.41
2022-09-12T22:23:24.965Z,101020.91
2022-09-12T22:25:57.210Z,101023.09
2022-09-12T22:28:25.308Z,101023.09
2022-09-12T22:30:54.411Z,101024.19
2022-09-12T22:33:22.770Z,101026.88
2022-09-12T22:35:50.105Z,101027.09
2022-09-12T22:38:17.666Z,101028.00
2022-09-12T22:40:44.890Z,101024.91
2022-09-12T22:43:12.869Z,101026.31
2022-09-12T22:45:41.758Z,101021.56
2022-09-12T22:48:09.492Z,101023.44
2022-09-12T22:50:36.797Z,101025.91
2022-09-12T22:53:04.140Z,101033.16
2022-09-12T22:55:31.520Z,101026.41
2022-09-12T22:57:59.173Z,101025.75
2022-09-12T23:00:28.023Z,101028.53
2022-09-12T23:02:56.421Z,101025.56
2022-09-12T23:05:23.859Z,101026.19
2022-09-12T23:07:51.811Z,101021.75
2022-09-12T23:10:19.596Z,101023.22
2022-09-12T23:12:46.975Z,101024.13
2022-09-12T23:15:15.248Z,101021.31
2022-09-12T23:17:42.691Z,101026.19
2022-09-12T23:20:10.155Z,101016.16
2022-09-12T23:22:37.490Z,101025.16
2022-09-12T23:25:05.819Z,101019.34
2022-09-12T23:27:34.863Z,101018.22
2022-09-12T23:30:02.811Z,101022.50
2022-09-12T23:32:30.257Z,101024.09
2022-09-12T23:34:58.980Z,101022.25
2022-09-12T23:37:26.568Z,101024.16
2022-09-12T23:39:54.027Z,101016.88
2022-09-12T23:42:22.109Z,101019.91
2022-09-12T23:44:49.367Z,101010.88
2022-09-12T23:47:18.443Z,101014.28
2022-09-12T23:49:45.812Z,101023.06
2022-09-12T23:52:13.077Z,101020.75
2022-09-12T23:54:40.397Z,101013.09
2022-09-12T23:57:07.980Z,101025.41
2022-09-12T23:59:35.790Z,101019.22
